Time;durP1;ratioP1;P1;durP2;ratioP2;P2;SDS_P1;SDS_P2;PMS_P1;PMS_P2;Temp;Humidity;BMP_temperature;BMP_pressure;BME280_temperature;BME280_humidity;BME280_pressure;Samples;Min_cycle;Max_cycle;Signal;HPM_P1;HPM_P2
2022/07/31 00:01:57;;;;;;;10.35;4.43;;;18.40;99.90;;;;;;6099380;23;20100;-88
2022/07/31 00:04:23;;;;;;;9.93;4.28;;;18.40;99.90;;;;;;6100346;23;20105;-88
2022/07/31 00:06:50;;;;;;;11.43;4.38;;;18.40;99.90;;;;;;6102776;23;20021;-87
2022/07/31 00:09:16;;;;;;;7.60;3.60;;;18.60;99.90;;;;;;6099805;23;20506;-88
2022/07/31 00:11:42;;;;;;;10.15;4.32;;;18.70;99.90;;;;;;6100000;23;20017;-88
2022/07/31 00:14:08;;;;;;;9.35;3.90;;;18.30;99.90;;;;;;6100139;23;20022;-88
2022/07/31 00:16:34;;;;;;;11.75;4.07;;;18.30;99.90;;;;;;6128958;23;20025;-88
2022/07/31 00:19:00;;;;;;;8.18;3.47;;;18.80;99.90;;;;;;6148494;23;20354;-88
2022/07/31 00:21:26;;;;;;;10.82;3.92;;;18.30;99.90;;;;;;6126544;23;20018;-88
2022/07/31 00:23:51;;;;;;;10.05;3.60;;;18.30;99.90;;;;;;6125679;23;20380;-88
2022/07/31 00:26:17;;;;;;;8.77;3.58;;;18.30;99.90;;;;;;6100254;23;20339;-88
2022/07/31 00:28:43;;;;;;;8.52;3.63;;;18.20;99.90;;;;;;6125599;23;20021;-88
2022/07/31 00:31:08;;;;;;;8.27;3.50;;;18.30;99.90;;;;;;6114693;23;20111;-89
2022/07/31 00:33:34;;;;;;;8.82;3.40;;;18.20;99.90;;;;;;6160576;23;20071;-88
2022/07/31 00:35:59;;;;;;;11.32;3.78;;;18.20;99.90;;;;;;6125462;23;20096;-88
2022/07/31 00:38:25;;;;;;;8.65;3.40;;;18.70;99.90;;;;;;6149217;23;20092;-88
2022/07/31 00:40:51;;;;;;;7.88;3.30;;;18.20;99.90;;;;;;6126496;23;20017;-88
2022/07/31 00:43:17;;;;;;;8.38;3.50;;;18.00;99.90;;;;;;6148294;23;20013;-88
2022/07/31 00:45:43;;;;;;;9.32;3.45;;;18.10;99.90;;;;;;6100133;23;20049;-88
2022/07/31 00:48:09;;;;;;;7.50;3.20;;;18.10;99.90;;;;;;6106562;23;20442;-88
2022/07/31 00:50:36;;;;;;;8.88;3.22;;;18.10;99.90;;;;;;6148019;23;20022;-88
2022/07/31 00:53:02;;;;;;;8.68;3.40;;;18.10;99.90;;;;;;6099906;23;20018;-88
2022/07/31 00:55:30;;;;;;;8.80;3.40;;;18.10;99.90;;;;;;6126252;23;20434;-88
2022/07/31 00:57:56;;;;;;;9.45;3.50;;;18.10;99.90;;;;;;6098660;23;20014;-88
2022/07/31 01:00:22;;;;;;;8.27;3.47;;;18.00;99.90;;;;;;6100094;23;20077;-88
2022/07/31 01:02:48;;;;;;;8.40;3.40;;;18.00;99.90;;;;;;6099741;23;20024;-88
2022/07/31 01:05:17;;;;;;;8.38;3.38;;;18.30;99.90;;;;;;6099236;23;20046;-88
2022/07/31 01:07:44;;;;;;;7.80;3.08;;;18.10;99.90;;;;;;6099661;23;20457;-87
2022/07/31 01:10:15;;;;;;;9.23;3.25;;;17.90;99.90;;;;;;6126237;23;20016;-88
2022/07/31 01:12:50;;;;;;;9.65;3.20;;;17.90;99.90;;;;;;6099492;23;20020;-88
2022/07/31 01:15:19;;;;;;;9.32;3.40;;;18.30;99.90;;;;;;6126277;23;20021;-88
2022/07/31 01:17:47;;;;;;;7.80;3.50;;;17.90;99.90;;;;;;6125918;23;20133;-88
2022/07/31 01:20:13;;;;;;;8.25;3.15;;;17.80;99.90;;;;;;6101017;23;20450;-88
2022/07/31 01:22:57;;;;;;;9.45;3.35;;;17.70;99.90;;;;;;6127431;23;20470;-88
2022/07/31 01:25:53;;;;;;;7.60;3.30;;;17.70;99.90;;;;;;6126629;23;20014;-88
2022/07/31 01:29:00;;;;;;;9.05;3.38;;;17.60;99.90;;;;;;6101575;23;20010;-88
2022/07/31 01:31:40;;;;;;;9.98;3.30;;;17.50;99.90;;;;;;6101614;23;20436;-88
2022/07/31 01:34:15;;;;;;;9.85;3.35;;;17.50;99.90;;;;;;6126892;23;20021;-88
2022/07/31 01:36:48;;;;;;;8.63;3.38;;;17.40;99.90;;;;;;6127715;23;20014;-87
2022/07/31 01:39:14;;;;;;;9.02;3.33;;;17.30;99.90;;;;;;6149981;23;20018;-88
2022/07/31 01:41:44;;;;;;;9.27;3.40;;;17.30;99.90;;;;;;6125923;23;20092;-88
2022/07/31 01:44:14;;;;;;;9.65;3.40;;;17.20;99.90;;;;;;6128038;23;20077;-88
2022/07/31 01:46:42;;;;;;;11.05;3.88;;;17.80;99.90;;;;;;6126824;23;20018;-88
2022/07/31 01:49:09;;;;;;;10.82;3.78;;;17.10;99.90;;;;;;6127730;23;20022;-88
2022/07/31 01:51:38;;;;;;;11.65;3.85;;;17.10;99.90;;;;;;6101526;23;20093;-87
2022/07/31 01:54:04;;;;;;;10.27;4.28;;;17.00;99.90;;;;;;6126236;23;20409;-87
2022/07/31 01:56:32;;;;;;;9.63;3.85;;;17.00;99.90;;;;;;6127647;23;20049;-88
2022/07/31 01:58:59;;;;;;;9.60;4.30;;;17.00;99.90;;;;;;6144878;23;20014;-86
2022/07/31 02:01:27;;;;;;;10.02;4.18;;;16.90;99.90;;;;;;6149387;23;20068;-88
2022/07/31 02:03:54;;;;;;;10.50;4.00;;;16.90;99.90;;;;;;6142376;23;20008;-87
2022/07/31 02:06:22;;;;;;;9.73;4.05;;;16.90;99.90;;;;;;6143722;23;20017;-88
2022/07/31 02:08:50;;;;;;;9.20;4.28;;;16.90;99.90;;;;;;6127579;23;20065;-88
2022/07/31 02:11:18;;;;;;;8.52;4.10;;;16.90;99.90;;;;;;6150482;23;20101;-88
2022/07/31 02:13:47;;;;;;;10.77;4.47;;;16.80;99.90;;;;;;6126000;23;20014;-88
2022/07/31 02:16:15;;;;;;;10.18;4.45;;;16.90;99.90;;;;;;6127028;23;20050;-88
2022/07/31 02:18:41;;;;;;;9.13;4.05;;;16.90;99.90;;;;;;6127362;23;20014;-88
2022/07/31 02:21:07;;;;;;;9.07;3.95;;;16.90;99.90;;;;;;6101434;23;20030;-88
2022/07/31 02:23:33;;;;;;;11.20;4.20;;;16.90;99.90;;;;;;6126253;23;20047;-88
2022/07/31 02:26:00;;;;;;;11.60;4.40;;;16.90;99.90;;;;;;6126845;23;20092;-88
2022/07/31 02:28:27;;;;;;;9.80;4.30;;;16.90;99.90;;;;;;6100409;23;20018;-88
2022/07/31 02:30:53;;;;;;;9.88;3.97;;;16.90;99.90;;;;;;6100672;23;20465;-88
2022/07/31 02:33:22;;;;;;;10.02;4.20;;;17.00;99.90;;;;;;6127338;23;20021;-88
2022/07/31 02:35:50;;;;;;;9.07;4.35;;;17.20;99.90;;;;;;6125472;23;20128;-88
2022/07/31 02:38:19;;;;;;;8.25;4.18;;;17.10;99.90;;;;;;6100850;23;20022;-88
2022/07/31 02:40:45;;;;;;;10.23;4.13;;;17.10;99.90;;;;;;6100572;23;20013;-88
2022/07/31 02:43:12;;;;;;;11.13;4.60;;;17.50;99.90;;;;;;6126632;23;20018;-88
2022/07/31 02:45:39;;;;;;;8.48;4.50;;;17.20;99.90;;;;;;6100772;23;20061;-88
2022/07/31 02:48:05;;;;;;;9.65;4.32;;;17.20;99.90;;;;;;6100161;23;20438;-88
2022/07/31 02:50:31;;;;;;;9.85;4.03;;;17.30;99.90;;;;;;6099853;23;20018;-88
2022/07/31 02:52:57;;;;;;;8.98;4.07;;;17.60;99.90;;;;;;6149536;23;20014;-88
2022/07/31 02:55:23;;;;;;;9.95;4.20;;;17.30;99.90;;;;;;6149716;23;20010;-88
2022/07/31 02:57:50;;;;;;;10.38;4.20;;;17.30;99.90;;;;;;6125361;23;20320;-88
2022/07/31 03:00:25;;;;;;;9.00;4.32;;;18.00;99.90;;;;;;6100577;23;20026;-88
2022/07/31 03:02:52;;;;;;;9.52;4.40;;;17.30;99.90;;;;;;6126367;23;20029;-88
2022/07/31 03:05:19;;;;;;;9.10;4.30;;;17.90;99.90;;;;;;6099526;23;20018;-88
2022/07/31 03:07:44;;;;;;;9.07;4.50;;;17.50;99.90;;;;;;6126680;23;20021;-88
2022/07/31 03:10:11;;;;;;;10.43;4.80;;;17.30;99.90;;;;;;6127259;23;20022;-88
2022/07/31 03:12:43;;;;;;;10.05;4.70;;;17.30;99.90;;;;;;6099828;23;20014;-88
2022/07/31 03:15:16;;;;;;;9.00;4.50;;;17.30;99.90;;;;;;6127076;23;20022;-88
2022/07/31 03:17:44;;;;;;;10.45;4.63;;;17.30;99.90;;;;;;6126340;23;20018;-88
2022/07/31 03:20:11;;;;;;;10.05;4.45;;;17.40;99.90;;;;;;6100800;23;20010;-88
2022/07/31 03:22:38;;;;;;;9.40;4.70;;;17.30;99.90;;;;;;6150496;23;20049;-88
2022/07/31 03:25:05;;;;;;;11.98;4.35;;;17.20;99.90;;;;;;6172535;23;20096;-88
2022/07/31 03:27:30;;;;;;;8.48;4.35;;;17.20;99.90;;;;;;6185686;23;20017;-88
2022/07/31 03:30:17;;;;;;;9.38;4.60;;;17.20;99.90;;;;;;6175958;23;20162;-88
2022/07/31 03:32:43;;;;;;;12.13;4.22;;;17.20;99.90;;;;;;6184650;23;20092;-88
2022/07/31 03:35:09;;;;;;;10.00;4.43;;;18.10;99.90;;;;;;6186175;23;20048;-88
2022/07/31 03:37:50;;;;;;;8.98;4.40;;;17.20;99.90;;;;;;6175056;23;20017;-88
2022/07/31 03:40:16;;;;;;;11.80;4.40;;;17.70;99.90;;;;;;6167040;23;20360;-88
2022/07/31 03:42:43;;;;;;;10.35;4.60;;;17.30;99.90;;;;;;6185851;23;20024;-88
2022/07/31 03:45:28;;;;;;;10.90;4.30;;;17.70;99.90;;;;;;6159022;23;20072;-88
2022/07/31 03:47:54;;;;;;;9.52;4.20;;;17.80;99.90;;;;;;6184592;23;20035;-88
2022/07/31 03:50:40;;;;;;;9.77;4.57;;;17.70;99.90;;;;;;6185885;23;20520;-88
2022/07/31 03:53:07;;;;;;;10.07;4.32;;;17.30;99.90;;;;;;6157986;23;20041;-88
2022/07/31 03:55:42;;;;;;;10.57;4.32;;;17.30;99.90;;;;;;6159320;23;20025;-88
2022/07/31 03:58:08;;;;;;;9.65;4.47;;;17.30;99.90;;;;;;6189664;23;20028;-88
2022/07/31 04:00:35;;;;;;;12.38;4.38;;;17.60;99.90;;;;;;6184593;23;20019;-88
2022/07/31 04:03:20;;;;;;;10.27;4.50;;;17.30;99.90;;;;;;6158455;23;20056;-88
2022/07/31 04:05:48;;;;;;;10.82;4.30;;;17.30;99.90;;;;;;6158036;23;20080;-87
2022/07/31 04:08:33;;;;;;;10.25;4.60;;;17.60;99.90;;;;;;6162732;23;20021;-88
2022/07/31 04:10:58;;;;;;;8.95;4.55;;;18.10;99.90;;;;;;6158841;23;20082;-88
2022/07/31 04:13:42;;;;;;;9.07;4.53;;;17.30;99.90;;;;;;6185533;23;20458;-88
2022/07/31 04:16:08;;;;;;;10.45;4.90;;;18.10;99.90;;;;;;6158664;23;20025;-88
2022/07/31 04:18:34;;;;;;;9.80;4.72;;;17.80;99.90;;;;;;6185703;23;20091;-88
2022/07/31 04:21:16;;;;;;;10.68;4.30;;;18.00;99.90;;;;;;6157892;23;20436;-88
2022/07/31 04:23:41;;;;;;;9.30;4.43;;;17.20;99.90;;;;;;6158346;23;20024;-88
2022/07/31 04:26:07;;;;;;;9.10;4.32;;;18.00;99.90;;;;;;6183951;23;20025;-88
2022/07/31 04:28:33;;;;;;;10.60;4.43;;;17.90;99.90;;;;;;6158038;23;20080;-88
2022/07/31 04:31:18;;;;;;;10.48;4.60;;;18.20;99.90;;;;;;6158248;23;20017;-88
2022/07/31 04:33:44;;;;;;;10.20;4.60;;;17.90;99.90;;;;;;6185442;23;20013;-88
2022/07/31 04:36:10;;;;;;;9.38;4.60;;;18.00;99.90;;;;;;6158001;23;20494;-88
2022/07/31 04:38:51;;;;;;;9.75;4.53;;;18.20;99.90;;;;;;6185127;23;20017;-88
2022/07/31 04:41:16;;;;;;;10.30;4.50;;;17.00;99.90;;;;;;6184865;23;20437;-88
2022/07/31 04:43:43;;;;;;;10.50;4.72;;;17.60;99.90;;;;;;6161741;23;20037;-88
2022/07/31 04:46:25;;;;;;;9.02;4.30;;;17.60;99.90;;;;;;6158681;23;20239;-88
2022/07/31 04:48:50;;;;;;;9.30;4.57;;;18.10;99.90;;;;;;6185288;23;20016;-88
2022/07/31 04:51:20;;;;;;;9.88;4.45;;;18.00;99.90;;;;;;6158062;23;20437;-88
2022/07/31 04:54:04;;;;;;;10.25;4.40;;;17.70;99.90;;;;;;6159092;23;20012;-88
2022/07/31 04:56:33;;;;;;;10.82;4.57;;;17.70;99.90;;;;;;6159641;23;20087;-88
2022/07/31 04:59:13;;;;;;;9.43;4.45;;;17.80;99.90;;;;;;6160261;23;20017;-88
2022/07/31 05:01:40;;;;;;;9.32;4.53;;;18.40;99.90;;;;;;6160435;23;20500;-88
2022/07/31 05:04:07;;;;;;;10.27;4.63;;;18.40;99.90;;;;;;6159367;23;20017;-88
2022/07/31 05:06:52;;;;;;;9.73;4.43;;;18.50;99.90;;;;;;6186824;23;20397;-88
2022/07/31 05:09:24;;;;;;;9.45;4.18;;;18.30;99.90;;;;;;6187751;23;20019;-88
2022/07/31 05:12:07;;;;;;;10.05;4.32;;;17.80;99.90;;;;;;6185354;23;20009;-88
2022/07/31 05:14:33;;;;;;;10.00;4.40;;;17.80;99.90;;;;;;6161879;23;20025;-88
2022/07/31 05:16:58;;;;;;;10.65;4.65;;;17.90;99.90;;;;;;6160527;23;20393;-89
2022/07/31 05:19:28;;;;;;;12.55;4.72;;;18.20;99.90;;;;;;6160019;23;20438;-88
2022/07/31 05:21:54;;;;;;;10.73;4.40;;;17.90;99.90;;;;;;6160539;23;20017;-88
2022/07/31 05:24:21;;;;;;;8.88;4.43;;;18.00;99.90;;;;;;6159722;23;20482;-88
2022/07/31 05:26:46;;;;;;;10.23;4.70;;;17.90;99.90;;;;;;6156847;23;20028;-88
2022/07/31 05:29:12;;;;;;;9.43;4.18;;;18.20;99.90;;;;;;6187142;23;20017;-88
2022/07/31 05:31:38;;;;;;;10.40;4.28;;;18.00;99.90;;;;;;6185552;23;20025;-88
2022/07/31 05:34:03;;;;;;;9.25;4.47;;;18.10;99.90;;;;;;6159707;23;20099;-88
2022/07/31 05:36:29;;;;;;;10.15;4.30;;;18.10;99.90;;;;;;6160235;23;20021;-88
2022/07/31 05:38:54;;;;;;;9.88;4.45;;;18.10;99.90;;;;;;6158932;23;20067;-88
2022/07/31 05:41:20;;;;;;;10.30;4.28;;;18.20;99.90;;;;;;6160394;23;20025;-88
2022/07/31 05:43:45;;;;;;;10.32;4.43;;;18.20;99.90;;;;;;6186478;23;20013;-88
2022/07/31 05:46:13;;;;;;;11.93;4.82;;;18.30;99.90;;;;;;6185777;23;20100;-88
2022/07/31 05:48:40;;;;;;;12.73;4.47;;;18.30;99.90;;;;;;6160097;23;20035;-88
2022/07/31 05:51:09;;;;;;;12.27;4.43;;;18.40;99.90;;;;;;6160051;23;20021;-88
2022/07/31 05:53:34;;;;;;;11.60;4.35;;;18.40;99.90;;;;;;6164323;23;20430;-88
2022/07/31 05:56:00;;;;;;;9.95;4.88;;;18.40;99.90;;;;;;6160662;23;20020;-89
2022/07/31 05:58:25;;;;;;;12.40;4.38;;;18.90;99.90;;;;;;6187066;23;20072;-82
2022/07/31 06:00:51;;;;;;;9.18;3.95;;;18.50;99.90;;;;;;6180244;23;20044;-82
2022/07/31 06:03:39;;;;;;;9.35;4.20;;;18.50;99.90;;;;;;6160032;23;20017;-82
2022/07/31 06:06:04;;;;;;;10.32;4.47;;;18.60;99.90;;;;;;6185543;23;20076;-81
2022/07/31 06:08:30;;;;;;;9.32;3.88;;;18.70;99.90;;;;;;6158907;23;20465;-81
2022/07/31 06:10:56;;;;;;;9.68;4.13;;;18.70;99.90;;;;;;6157615;23;20100;-81
2022/07/31 06:13:36;;;;;;;10.25;3.88;;;19.10;99.90;;;;;;6160220;23;20052;-83
2022/07/31 06:16:11;;;;;;;9.43;4.10;;;19.40;99.90;;;;;;6161604;23;20438;-82
2022/07/31 06:18:36;;;;;;;10.32;4.40;;;18.70;99.90;;;;;;6160572;23;20145;-82
2022/07/31 06:21:02;;;;;;;10.38;4.00;;;18.90;99.90;;;;;;6159629;23;20048;-81
2022/07/31 06:23:30;;;;;;;9.88;4.38;;;19.00;99.90;;;;;;6161043;23;20496;-80
2022/07/31 06:25:56;;;;;;;11.75;4.47;;;19.00;99.90;;;;;;6188168;23;20021;-82
2022/07/31 06:28:21;;;;;;;10.80;4.68;;;19.10;99.90;;;;;;6159956;23;20017;-83
2022/07/31 06:30:47;;;;;;;9.10;3.95;;;19.10;99.90;;;;;;6186174;23;20064;-82
2022/07/31 06:33:13;;;;;;;8.18;4.05;;;19.20;99.90;;;;;;6159105;23;20024;-82
2022/07/31 06:35:38;;;;;;;9.63;4.40;;;19.60;99.90;;;;;;6158336;23;20017;-82
2022/07/31 06:38:04;;;;;;;9.75;4.25;;;19.30;99.90;;;;;;6185758;23;20393;-82
2022/07/31 06:40:29;;;;;;;12.45;4.68;;;19.40;99.90;;;;;;6159600;23;20016;-81
2022/07/31 06:42:55;;;;;;;10.13;5.07;;;19.40;99.90;;;;;;6158126;23;20021;-81
2022/07/31 06:45:21;;;;;;;9.93;4.20;;;19.50;99.90;;;;;;6159718;23;20342;-82
2022/07/31 06:47:46;;;;;;;8.88;4.50;;;19.50;99.90;;;;;;6185369;23;20446;-82
2022/07/31 06:50:12;;;;;;;9.98;4.18;;;19.60;99.90;;;;;;6158134;23;20088;-82
2022/07/31 06:52:38;;;;;;;9.90;4.00;;;19.80;99.90;;;;;;6159358;23;20080;-82
2022/07/31 06:55:05;;;;;;;11.35;4.53;;;19.70;99.90;;;;;;6158957;23;20024;-82
2022/07/31 06:57:30;;;;;;;9.15;4.28;;;19.70;99.90;;;;;;6146010;23;20013;-81
2022/07/31 06:59:56;;;;;;;9.40;4.30;;;19.80;99.90;;;;;;6185525;23;20067;-81
2022/07/31 07:02:22;;;;;;;8.90;4.10;;;19.90;99.90;;;;;;6186150;23;20024;-82
2022/07/31 07:04:47;;;;;;;9.23;4.22;;;19.80;99.90;;;;;;6184188;23;20052;-81
2022/07/31 07:07:13;;;;;;;8.45;3.83;;;20.20;99.90;;;;;;6159234;23;20021;-81
2022/07/31 07:09:39;;;;;;;8.73;3.78;;;20.00;99.90;;;;;;6157753;23;20021;-82
2022/07/31 07:12:05;;;;;;;10.35;4.32;;;20.10;99.90;;;;;;6185500;23;20088;-82
2022/07/31 07:14:30;;;;;;;11.82;4.38;;;20.10;99.90;;;;;;6186024;23;20031;-82
2022/07/31 07:16:56;;;;;;;8.82;4.22;;;20.20;99.90;;;;;;6184056;23;20611;-82
2022/07/31 07:19:21;;;;;;;11.63;4.47;;;20.30;99.90;;;;;;6159388;23;20345;-82
2022/07/31 07:21:47;;;;;;;10.18;3.97;;;20.20;99.90;;;;;;6159149;23;20013;-82
2022/07/31 07:24:13;;;;;;;9.57;4.03;;;20.20;99.90;;;;;;6184096;23;20025;-82
2022/07/31 07:26:38;;;;;;;11.82;4.53;;;20.70;99.90;;;;;;6159096;23;20015;-82
2022/07/31 07:29:04;;;;;;;11.90;4.60;;;20.30;99.90;;;;;;6158911;23;20398;-82
2022/07/31 07:31:30;;;;;;;9.60;4.50;;;20.40;99.90;;;;;;6158229;23;20084;-82
2022/07/31 07:33:55;;;;;;;10.07;4.30;;;20.40;99.90;;;;;;6185460;23;20386;-82
2022/07/31 07:36:21;;;;;;;11.15;4.00;;;20.50;99.90;;;;;;6158907;23;20025;-82
2022/07/31 07:38:47;;;;;;;10.10;4.63;;;20.50;99.90;;;;;;6157599;23;20017;-82
2022/07/31 07:41:12;;;;;;;10.80;4.60;;;20.50;99.90;;;;;;6185553;23;20035;-82
2022/07/31 07:43:38;;;;;;;9.98;4.47;;;20.60;99.90;;;;;;6185563;23;20021;-82
2022/07/31 07:46:04;;;;;;;11.57;4.53;;;20.70;99.90;;;;;;6157489;23;20096;-82
2022/07/31 07:48:29;;;;;;;9.88;4.35;;;20.70;99.90;;;;;;6185795;23;20025;-82
2022/07/31 07:50:55;;;;;;;9.93;4.10;;;20.70;99.90;;;;;;6158584;23;20020;-82
2022/07/31 07:53:21;;;;;;;10.52;4.30;;;20.70;99.90;;;;;;6184603;23;20092;-83
2022/07/31 07:55:46;;;;;;;10.52;4.68;;;21.10;99.90;;;;;;6185208;23;20063;-82
2022/07/31 07:58:12;;;;;;;10.43;4.70;;;20.80;99.90;;;;;;6159539;23;20031;-81
2022/07/31 08:00:38;;;;;;;10.60;5.03;;;20.90;99.90;;;;;;6157946;23;20337;-82
2022/07/31 08:03:04;;;;;;;11.20;4.90;;;20.90;99.90;;;;;;6185308;23;20330;-82
2022/07/31 08:05:29;;;;;;;11.30;5.50;;;21.00;99.90;;;;;;6159278;23;20032;-83
2022/07/31 08:07:55;;;;;;;11.38;5.30;;;20.90;99.90;;;;;;6184100;23;20302;-84
2022/07/31 08:10:20;;;;;;;10.77;5.80;;;21.20;99.90;;;;;;6158581;23;20021;-83
2022/07/31 08:12:46;;;;;;;12.98;5.80;;;21.00;99.90;;;;;;6158768;23;20020;-81
2022/07/31 08:15:12;;;;;;;10.63;5.30;;;21.00;99.90;;;;;;6158262;23;20025;-81
2022/07/31 08:17:37;;;;;;;11.88;5.60;;;21.10;99.90;;;;;;6159571;23;20412;-81
2022/07/31 08:20:04;;;;;;;12.88;5.75;;;21.20;99.90;;;;;;6157830;23;20406;-81
2022/07/31 08:22:29;;;;;;;12.80;6.05;;;21.30;99.90;;;;;;6158477;23;20453;-81
2022/07/31 08:24:55;;;;;;;11.50;6.28;;;21.40;99.90;;;;;;6184341;23;20028;-82
2022/07/31 08:27:24;;;;;;;12.25;6.35;;;21.40;99.90;;;;;;6158150;23;20513;-81
2022/07/31 08:29:52;;;;;;;11.25;6.10;;;21.50;99.90;;;;;;6184777;23;20017;-82
2022/07/31 08:32:18;;;;;;;12.68;7.32;;;21.60;99.90;;;;;;6158510;23;20025;-81
2022/07/31 08:34:44;;;;;;;11.70;6.97;;;21.40;99.90;;;;;;6157535;23;20020;-81
2022/07/31 08:37:09;;;;;;;13.48;7.00;;;21.40;99.90;;;;;;6159025;23;20048;-81
2022/07/31 08:39:35;;;;;;;13.40;7.05;;;21.40;99.90;;;;;;6158858;23;20020;-82
2022/07/31 08:42:06;;;;;;;12.35;7.22;;;21.40;99.90;;;;;;6157409;23;20408;-82
2022/07/31 08:44:35;;;;;;;14.43;7.88;;;21.40;99.90;;;;;;6158946;23;20036;-82
2022/07/31 08:47:04;;;;;;;13.10;7.80;;;21.40;99.90;;;;;;6159147;23;20446;-81
2022/07/31 08:49:35;;;;;;;12.63;7.25;;;21.30;99.90;;;;;;6158319;23;20017;-81
2022/07/31 08:52:01;;;;;;;12.15;7.50;;;21.10;99.90;;;;;;6159161;23;20017;-82
2022/07/31 08:54:27;;;;;;;13.27;7.50;;;21.00;99.90;;;;;;6158443;23;20021;-81
2022/07/31 08:56:53;;;;;;;12.88;7.47;;;21.50;99.90;;;;;;6183814;23;20024;-81
2022/07/31 08:59:19;;;;;;;13.05;7.25;;;21.00;99.90;;;;;;6158550;23;20009;-81
2022/07/31 09:01:45;;;;;;;13.55;7.32;;;21.10;99.90;;;;;;6157937;23;20044;-82
2022/07/31 09:04:11;;;;;;;13.75;8.43;;;21.20;99.90;;;;;;6157839;23;20014;-82
2022/07/31 09:06:37;;;;;;;12.75;7.65;;;21.10;99.90;;;;;;6185662;23;20528;-82
2022/07/31 09:09:03;;;;;;;14.48;7.75;;;21.20;99.90;;;;;;6158195;23;20017;-83
2022/07/31 09:11:29;;;;;;;14.63;7.20;;;21.20;99.90;;;;;;6183766;23;20460;-81
2022/07/31 09:13:59;;;;;;;13.77;7.18;;;21.30;99.90;;;;;;6184502;23;20104;-81
2022/07/31 09:16:25;;;;;;;14.05;7.47;;;21.40;99.90;;;;;;6183866;23;20072;-82
2022/07/31 09:19:02;;;;;;;12.65;7.35;;;21.40;99.90;;;;;;6184431;23;20029;-81
2022/07/31 09:21:41;;;;;;;12.40;7.38;;;21.30;99.90;;;;;;6184714;23;20052;-82
2022/07/31 09:24:12;;;;;;;11.88;7.43;;;21.40;99.90;;;;;;6182842;23;20315;-82
2022/07/31 09:26:41;;;;;;;12.27;7.47;;;21.20;99.90;;;;;;6157754;23;20013;-81
2022/07/31 09:29:10;;;;;;;13.52;7.78;;;21.10;99.90;;;;;;6157507;23;20020;-81
2022/07/31 09:31:37;;;;;;;12.50;7.20;;;21.20;99.90;;;;;;6157405;23;20021;-81
2022/07/31 09:34:03;;;;;;;13.75;7.10;;;21.10;99.90;;;;;;6184913;23;20016;-81
2022/07/31 09:36:32;;;;;;;16.20;7.15;;;21.10;99.90;;;;;;6158369;23;20049;-82
2022/07/31 09:39:00;;;;;;;13.95;7.47;;;21.00;99.90;;;;;;6157597;23;20021;-81
2022/07/31 09:41:26;;;;;;;12.20;7.30;;;20.90;99.90;;;;;;6160747;23;20009;-81
2022/07/31 09:44:04;;;;;;;13.40;7.68;;;21.00;99.90;;;;;;6160035;23;20020;-81
2022/07/31 09:46:44;;;;;;;14.25;8.07;;;20.80;99.90;;;;;;6185627;23;20020;-81
2022/07/31 09:49:10;;;;;;;13.55;8.07;;;20.80;99.90;;;;;;6160332;23;20028;-81
2022/07/31 09:51:43;;;;;;;12.98;7.50;;;21.00;99.90;;;;;;6158799;23;20013;-80
2022/07/31 09:54:22;;;;;;;15.68;8.20;;;20.70;99.90;;;;;;6186781;23;20091;-80
2022/07/31 09:56:49;;;;;;;13.70;7.88;;;20.90;99.90;;;;;;6159645;23;20020;-80
2022/07/31 09:59:15;;;;;;;13.98;8.52;;;20.70;99.90;;;;;;6158899;23;20031;-80
2022/07/31 10:01:42;;;;;;;15.00;8.45;;;20.60;99.90;;;;;;6186347;23;20457;-80
2022/07/31 10:04:09;;;;;;;14.23;8.55;;;20.60;99.90;;;;;;6186491;23;20342;-80
2022/07/31 10:06:35;;;;;;;13.88;8.18;;;20.60;99.90;;;;;;6159189;23;20025;-80
2022/07/31 10:09:03;;;;;;;14.13;8.57;;;21.10;99.90;;;;;;6185784;23;20449;-81
2022/07/31 10:11:31;;;;;;;14.77;8.93;;;20.80;99.90;;;;;;6159407;23;20021;-82
2022/07/31 10:14:00;;;;;;;16.92;9.15;;;20.90;99.90;;;;;;6184368;23;20017;-79
2022/07/31 10:16:28;;;;;;;16.00;8.60;;;21.00;99.90;;;;;;6185629;23;20504;-80
2022/07/31 10:18:59;;;;;;;14.73;8.30;;;21.20;99.90;;;;;;6185806;23;20027;-80
2022/07/31 10:21:38;;;;;;;15.43;8.68;;;21.30;99.90;;;;;;6158709;23;20021;-80
2022/07/31 10:24:06;;;;;;;14.70;8.27;;;21.60;99.90;;;;;;6185589;23;20074;-80
2022/07/31 10:26:32;;;;;;;14.65;8.73;;;21.10;99.90;;;;;;6158446;23;20067;-81
2022/07/31 10:28:58;;;;;;;14.93;8.95;;;21.20;99.90;;;;;;6182161;23;20453;-79
2022/07/31 10:31:24;;;;;;;15.02;9.00;;;21.10;99.90;;;;;;6159086;23;20044;-81
2022/07/31 10:33:51;;;;;;;15.00;9.27;;;21.30;99.90;;;;;;6185072;23;20017;-79
2022/07/31 10:36:31;;;;;;;14.45;9.30;;;21.20;99.90;;;;;;6159622;23;20040;-79
2022/07/31 10:39:13;;;;;;;14.40;8.82;;;21.30;99.90;;;;;;6185863;23;20084;-79
2022/07/31 10:42:14;;;;;;;15.18;8.52;;;21.50;99.90;;;;;;6158438;23;20024;-79
2022/07/31 10:44:53;;;;;;;14.40;9.38;;;21.70;99.90;;;;;;6160505;23;20024;-79
2022/07/31 10:47:19;;;;;;;13.70;9.10;;;21.80;99.90;;;;;;6186017;23;20437;-79
2022/07/31 10:49:47;;;;;;;13.00;8.95;;;21.80;99.90;;;;;;6158159;23;20020;-79
2022/07/31 10:52:31;;;;;;;15.43;8.88;;;21.80;99.90;;;;;;6159428;23;20087;-79
2022/07/31 10:54:58;;;;;;;;;;;22.00;99.90;;;;;;6185370;23;20017;-78
2022/07/31 10:57:29;;;;;;;14.60;9.13;;;22.10;99.90;;;;;;6186122;23;19962;-79
2022/07/31 10:59:55;;;;;;;15.68;10.20;;;22.50;99.90;;;;;;6159011;23;20445;-78
2022/07/31 11:02:47;;;;;;;15.68;10.90;;;22.00;99.90;;;;;;6158438;23;20100;-79
2022/07/31 11:05:15;;;;;;;17.65;11.77;;;22.10;99.90;;;;;;6179558;23;20048;-78
2022/07/31 11:07:43;;;;;;;17.70;12.20;;;22.00;99.90;;;;;;6159876;23;20050;-78
2022/07/31 11:10:19;;;;;;;18.67;12.55;;;21.90;99.90;;;;;;6158184;23;20009;-79
2022/07/31 11:13:03;;;;;;;19.88;12.95;;;21.90;99.90;;;;;;6159663;23;20029;-81
2022/07/31 11:15:29;;;;;;;21.52;13.52;;;21.80;99.90;;;;;;6185958;23;20013;-79
2022/07/31 11:17:55;;;;;;;19.13;13.15;;;21.60;99.90;;;;;;6184851;23;20013;-80
2022/07/31 11:20:25;;;;;;;21.42;13.68;;;21.60;99.90;;;;;;6158912;23;20499;-79
2022/07/31 11:22:59;;;;;;;21.40;14.50;;;21.60;99.90;;;;;;6157243;23;20024;-79
2022/07/31 11:25:28;;;;;;;20.15;14.63;;;21.60;99.90;;;;;;6158019;23;20037;-79
2022/07/31 11:27:57;;;;;;;21.88;14.60;;;21.70;99.90;;;;;;6184108;23;20013;-79
2022/07/31 11:30:23;;;;;;;20.23;13.38;;;21.50;99.90;;;;;;6184286;23;20019;-80
2022/07/31 11:32:51;;;;;;;20.40;14.45;;;21.50;99.90;;;;;;6157934;23;20457;-80
2022/07/31 11:35:30;;;;;;;21.20;14.02;;;21.30;99.90;;;;;;6184376;23;20389;-80
2022/07/31 11:37:57;;;;;;;21.80;14.50;;;21.40;99.90;;;;;;6182756;23;20017;-78
2022/07/31 11:40:23;;;;;;;19.42;13.90;;;21.40;99.90;;;;;;6157028;23;20354;-79
2022/07/31 11:42:49;;;;;;;20.52;13.13;;;21.40;99.90;;;;;;6183500;23;20021;-79
2022/07/31 11:45:15;;;;;;;21.05;13.35;;;21.30;99.90;;;;;;6157934;23;20017;-79
2022/07/31 11:47:44;;;;;;;20.38;13.70;;;21.40;99.90;;;;;;6158390;23;20059;-79
2022/07/31 11:50:09;;;;;;;19.52;12.77;;;21.40;99.90;;;;;;6159208;23;20025;-79
2022/07/31 11:52:36;;;;;;;18.30;12.75;;;21.40;99.90;;;;;;6157587;23;20495;-81
2022/07/31 11:55:20;;;;;;;20.73;14.00;;;21.60;99.90;;;;;;6184932;23;20013;-80
2022/07/31 11:57:46;;;;;;;21.23;13.82;;;21.40;99.90;;;;;;6158272;23;20017;-80
2022/07/31 12:00:14;;;;;;;23.13;15.48;;;21.50;99.90;;;;;;6157857;23;20021;-80
2022/07/31 12:02:44;;;;;;;22.60;16.65;;;21.20;99.90;;;;;;6158212;23;20018;-80
2022/07/31 12:05:12;;;;;;;24.42;17.88;;;20.90;99.90;;;;;;6158180;23;20024;-80
2022/07/31 12:07:39;;;;;;;24.27;18.17;;;20.70;99.90;;;;;;6158641;23;20492;-80
2022/07/31 12:10:07;;;;;;;24.20;18.05;;;20.50;99.90;;;;;;6158031;23;20017;-80
2022/07/31 12:12:33;;;;;;;26.08;18.85;;;20.30;99.90;;;;;;6184100;23;20453;-82
2022/07/31 12:14:58;;;;;;;27.10;18.52;;;20.10;99.90;;;;;;6155428;23;20021;-80
2022/07/31 12:17:24;;;;;;;28.00;18.98;;;20.00;99.90;;;;;;6183647;23;20501;-80
2022/07/31 12:19:50;;;;;;;26.83;19.33;;;20.50;99.90;;;;;;6181493;23;20013;-80
2022/07/31 12:22:17;;;;;;;24.75;18.23;;;19.70;99.90;;;;;;6184804;23;20315;-80
2022/07/31 12:24:43;;;;;;;26.98;19.55;;;19.80;99.90;;;;;;6158092;23;20027;-82
2022/07/31 12:27:20;;;;;;;27.05;19.30;;;19.70;99.90;;;;;;6157540;23;20095;-81
2022/07/31 12:29:48;;;;;;;26.02;19.05;;;19.50;99.90;;;;;;6157588;23;20021;-80
2022/07/31 12:32:23;;;;;;;27.73;18.70;;;19.50;99.90;;;;;;6158347;23;20346;-80
2022/07/31 12:35:01;;;;;;;25.77;17.80;;;19.30;99.90;;;;;;6156505;23;20088;-79
2022/07/31 12:37:26;;;;;;;26.05;18.33;;;19.20;99.90;;;;;;6184221;23;20070;-79
2022/07/31 12:39:53;;;;;;;28.55;19.35;;;19.50;99.90;;;;;;6157424;23;20473;-79
2022/07/31 12:42:20;;;;;;;28.83;19.17;;;19.10;99.90;;;;;;6157037;23;20453;-79
2022/07/31 12:44:53;;;;;;;27.38;20.05;;;19.10;99.90;;;;;;6157760;23;20072;-80
2022/07/31 12:47:27;;;;;;;31.40;21.65;;;19.20;99.90;;;;;;6157213;23;20068;-80